ADDS METAR Data INFO
IDs: Format: Raw Decoded Include TAF

Data at: 1912 UTC 23 Jun 2018

METAR for:KLUK (Cincinnati/Lunken Ar, OH, US)
Text:KLUK 231853Z 25009G18KT 10SM BKN032 BKN040 OVC070 24/19 A2980 RMK AO2 SLP087 T02440189 $
Temperature: 24.4°C ( 76°F)
Dewpoint: 18.9°C ( 66°F) [RH = 71%]
Pressure (altimeter):29.80 inches Hg (1009.2 mb) [Sea level pressure: 1008.7 mb]
Winds:from the WSW (250 degrees) at 10 MPH (9 knots; 4.6 m/s) gusting to 21 MPH (18 knots; 9.3 m/s)
Visibility:10 or more sm (16+ km)
Ceiling:3200 feet AGL
Clouds: broken clouds at 3200 feet AGL, broken clouds at 4000 feet AGL, overcast cloud deck at 7000 feet AGL
QC Flag:SOME DATA ABOVE MAY BE INACCURATE!!!"$" is an indication the sensor requires maintenance.